Time;durP1;ratioP1;P1;durP2;ratioP2;P2;SDS_P1;SDS_P2;PMS_P1;PMS_P2;Temp;Humidity;BMP_temperature;BMP_pressure;BME280_temperature;BME280_humidity;BME280_pressure;Samples;Min_cycle;Max_cycle;Signal;HPM_P1;HPM_P2
2024/03/18 00:00:22;;;;;;;70.65;49.53;;;14.60;99.90;;;;;;5070611;28;20047;-69
2024/03/18 00:03:27;;;;;;;73.60;49.88;;;;;;;;;;5070707;28;20047;-69
2024/03/18 00:06:31;;;;;;;73.03;49.00;;;14.60;99.90;;;;;;5070444;28;20385;-69
2024/03/18 00:09:36;;;;;;;73.60;48.67;;;;;;;;;;5070292;28;20044;-69
2024/03/18 00:12:41;;;;;;;74.05;47.88;;;;;;;;;;5070534;28;20047;-69
2024/03/18 00:15:45;;;;;;;74.20;49.05;;;;;;;;;;5072784;28;20527;-69
2024/03/18 00:18:49;;;;;;;65.32;46.42;;;;;;;;;;5074709;28;20040;-69
2024/03/18 00:21:53;;;;;;;65.05;45.28;;;;;;;;;;5074616;28;20480;-69
2024/03/18 00:24:58;;;;;;;61.78;41.88;;;;;;;;;;5074268;28;20047;-69
2024/03/18 00:28:02;;;;;;;60.33;39.45;;;;;;;;;;5074603;28;20072;-69
2024/03/18 00:31:07;;;;;;;56.53;37.95;;;;;;;;;;5074031;28;20507;-69
2024/03/18 00:34:11;;;;;;;58.63;37.95;;;;;;;;;;5074371;28;20039;-69
2024/03/18 00:37:15;;;;;;;51.25;35.75;;;;;;;;;;5073969;28;20043;-69
2024/03/18 00:40:20;;;;;;;49.53;35.20;;;;;;;;;;5073770;28;20044;-69
2024/03/18 00:43:24;;;;;;;50.83;34.30;;;;;;;;;;5073791;28;20040;-69
2024/03/18 00:46:28;;;;;;;48.17;32.97;;;;;;;;;;5074065;28;20036;-69
2024/03/18 00:49:33;;;;;;;48.63;32.97;;;;;;;;;;5073957;28;20111;-69
2024/03/18 00:52:40;;;;;;;53.67;32.97;;;13.70;99.90;;;;;;5073854;28;20055;-69
2024/03/18 00:55:44;;;;;;;47.70;33.28;;;;;;;;;;5073784;28;20047;-69
2024/03/18 00:58:51;;;;;;;49.50;34.03;;;;;;;;;;5073908;28;20500;-69
2024/03/18 01:05:19;;;;;;;52.00;34.63;;;;;;;;;;5073873;28;20060;-69
2024/03/18 01:08:23;;;;;;;52.45;36.03;;;12.60;99.90;;;;;;5073744;28;20055;-69
2024/03/18 01:11:30;;;;;;;53.88;35.92;;;12.70;99.90;;;;;;5073529;28;20068;-69
2024/03/18 01:14:34;;;;;;;53.28;38.15;;;;;;;;;;5073571;28;20052;-69
2024/03/18 01:17:38;;;;;;;56.97;39.67;;;13.70;99.90;;;;;;5072736;28;20052;-69
2024/03/18 01:20:43;;;;;;;56.42;37.00;;;;;;;;;;5073341;28;20040;-69
2024/03/18 01:23:47;;;;;;;55.80;36.67;;;;;;;;;;5072869;28;20047;-69
2024/03/18 01:26:51;;;;;;;50.83;36.45;;;;;;;;;;5072731;28;20404;-69
2024/03/18 01:29:55;;;;;;;58.10;38.38;;;;;;;;;;5073466;28;20043;-69
2024/03/18 01:33:00;;;;;;;62.60;39.25;;;;;;;;;;5073492;28;20047;-69
2024/03/18 01:36:04;;;;;;;57.13;38.35;;;;;;;;;;5073130;28;20063;-69
2024/03/18 01:39:09;;;;;;;56.95;38.35;;;;;;;;;;5073475;28;20047;-69
2024/03/18 01:42:14;;;;;;;58.42;39.22;;;;;;;;;;5073355;28;20043;-69
2024/03/18 01:45:23;;;;;;;54.40;38.60;;;13.50;99.90;;;;;;5072091;28;20047;-69
2024/03/18 01:48:28;;;;;;;52.78;37.28;;;;;;;;;;5073173;28;20043;-69
2024/03/18 01:51:32;;;;;;;55.22;38.53;;;13.50;99.90;;;;;;5072768;28;20059;-69
2024/03/18 01:54:36;;;;;;;53.17;38.05;;;;;;;;;;5072930;28;20496;-69
2024/03/18 01:57:41;;;;;;;54.45;39.15;;;;;;;;;;5072658;28;20051;-68
2024/03/18 02:00:46;;;;;;;63.60;39.13;;;;;;;;;;5072972;28;20040;-68
2024/03/18 02:03:53;;;;;;;54.70;38.40;;;13.60;99.90;;;;;;5072981;28;20053;-68
2024/03/18 02:06:58;;;;;;;54.47;38.95;;;;;;;;;;5072319;28;20622;-69
2024/03/18 02:10:03;;;;;;;54.85;39.33;;;;;;;;;;5071972;28;20055;-68
2024/03/18 02:13:07;;;;;;;57.47;39.70;;;;;;;;;;5072562;28;20554;-68
2024/03/18 02:16:11;;;;;;;50.95;37.25;;;;;;;;;;5072394;28;20035;-69
2024/03/18 02:19:16;;;;;;;54.97;38.42;;;;;;;;;;5072540;28;20043;-68
2024/03/18 02:22:20;;;;;;;57.70;39.08;;;;;;;;;;5059891;28;20039;-68
2024/03/18 02:25:24;;;;;;;57.47;38.80;;;;;;;;;;5071983;28;20056;-68
2024/03/18 02:28:29;;;;;;;55.13;39.35;;;;;;;;;;5072394;28;20039;-68
2024/03/18 02:31:33;;;;;;;57.38;38.85;;;;;;;;;;5071963;28;20055;-68
2024/03/18 02:34:38;;;;;;;59.67;38.20;;;;;;;;;;5072100;28;20040;-68
2024/03/18 02:37:43;;;;;;;58.13;37.38;;;;;;;;;;5070378;28;20048;-68
2024/03/18 02:40:47;;;;;;;57.35;38.55;;;;;;;;;;5072037;28;20047;-68
2024/03/18 02:43:52;;;;;;;59.28;37.40;;;;;;;;;;5072128;28;20047;-68
2024/03/18 02:46:56;;;;;;;62.10;39.42;;;;;;;;;;5071855;28;20048;-68
2024/03/18 02:50:01;;;;;;;54.30;36.80;;;;;;;;;;5071657;28;20040;-68
2024/03/18 02:53:06;;;;;;;54.17;38.45;;;;;;;;;;5071584;28;20051;-68
2024/03/18 02:56:10;;;;;;;60.72;39.20;;;;;;;;;;5071571;28;20048;-68
2024/03/18 02:59:14;;;;;;;59.47;39.42;;;;;;;;;;5071733;28;20051;-68
2024/03/18 03:02:18;;;;;;;51.50;39.13;;;;;;;;;;5071641;28;20048;-68
2024/03/18 03:05:23;;;;;;;59.75;41.65;;;;;;;;;;5071376;28;20051;-69
2024/03/18 03:08:30;;;;;;;63.80;41.25;;;12.80;99.90;;;;;;5071446;28;20103;-68
2024/03/18 03:11:35;;;;;;;64.15;41.20;;;14.10;99.90;;;;;;5071208;28;20053;-68
2024/03/18 03:14:42;;;;;;;62.53;41.30;;;;;;;;;;5071863;28;20388;-68
2024/03/18 03:17:47;;;;;;;58.20;40.03;;;;;;;;;;5071530;28;20051;-69
2024/03/18 03:20:55;;;;;;;53.65;38.88;;;13.60;99.90;;;;;;5070673;28;20043;-68
2024/03/18 03:23:58;;;;;;;52.60;35.83;;;;;;;;;;5071769;28;20052;-68
2024/03/18 03:27:03;;;;;;;50.20;32.92;;;;;;;;;;5071213;28;20044;-68
2024/03/18 03:30:09;;;;;;;47.05;33.17;;;;;;;;;;5070946;28;20511;-68
2024/03/18 03:33:13;;;;;;;50.63;31.88;;;;;;;;;;5070618;28;20044;-68
2024/03/18 03:36:18;;;;;;;47.13;31.27;;;;;;;;;;5070916;28;20552;-68
2024/03/18 03:39:23;;;;;;;44.65;30.20;;;11.70;99.90;;;;;;5071272;28;20051;-68
2024/03/18 03:42:27;;;;;;;45.90;30.33;;;13.20;99.90;;;;;;5071221;28;20043;-68
2024/03/18 03:45:34;;;;;;;43.67;29.23;;;13.00;99.90;;;;;;5070131;28;20044;-68
2024/03/18 03:48:38;;;;;;;45.33;29.10;;;13.10;99.90;;;;;;5070461;28;20047;-68
2024/03/18 03:51:42;;;;;;;42.22;26.92;;;12.80;99.90;;;;;;5070735;28;20047;-68
2024/03/18 03:54:46;;;;;;;39.80;27.20;;;13.20;99.90;;;;;;5070749;28;20503;-68
2024/03/18 03:57:49;;;;;;;37.05;24.73;;;13.10;99.90;;;;;;5069890;28;20040;-69
2024/03/18 04:00:54;;;;;;;37.67;23.65;;;13.20;99.90;;;;;;5071024;28;20043;-68
2024/03/18 04:03:58;;;;;;;34.08;22.25;;;13.30;99.90;;;;;;5071034;28;20111;-69
2024/03/18 04:07:02;;;;;;;39.90;22.17;;;12.60;99.90;;;;;;5070899;28;20043;-69
2024/03/18 04:10:06;;;;;;;37.30;22.13;;;13.40;99.90;;;;;;5070859;28;20048;-69
2024/03/18 04:13:11;;;;;;;31.27;22.67;;;;;;;;;;5070776;28;20055;-69
2024/03/18 04:16:16;;;;;;;31.80;22.67;;;13.90;99.90;;;;;;5070341;28;20043;-68
2024/03/18 04:19:21;;;;;;;38.22;22.60;;;13.60;99.90;;;;;;5070741;28;20051;-67
2024/03/18 04:22:26;;;;;;;32.67;21.45;;;;;;;;;;5070580;28;20039;-68
2024/03/18 04:25:30;;;;;;;30.10;19.60;;;13.50;99.90;;;;;;5069970;28;20504;-68
2024/03/18 04:28:35;;;;;;;29.10;20.00;;;13.50;99.90;;;;;;5070435;28;20392;-68
2024/03/18 04:31:39;;;;;;;35.22;20.67;;;13.40;99.90;;;;;;5070187;28;20408;-68
2024/03/18 04:34:43;;;;;;;28.35;20.20;;;13.40;99.90;;;;;;5070433;28;20385;-70
2024/03/18 04:37:48;;;;;;;36.80;23.08;;;11.30;99.90;;;;;;5070386;28;20056;-69
2024/03/18 04:40:52;;;;;;;43.22;25.00;;;13.30;99.90;;;;;;5070445;28;20044;-69
2024/03/18 04:43:56;;;;;;;42.47;26.70;;;11.50;99.90;;;;;;5070488;28;20040;-69
2024/03/18 04:47:00;;;;;;;40.08;27.85;;;13.40;99.90;;;;;;5070432;28;20051;-69
2024/03/18 04:50:05;;;;;;;45.30;28.67;;;11.50;99.90;;;;;;5069605;28;20433;-68
2024/03/18 04:53:10;;;;;;;45.45;27.77;;;;;;;;;;5070130;28;20075;-67
2024/03/18 04:56:14;;;;;;;46.53;28.83;;;;;;;;;;5069301;28;20114;-69
2024/03/18 04:59:19;;;;;;;47.78;28.45;;;13.60;99.90;;;;;;5070181;28;20039;-69
2024/03/18 05:02:23;;;;;;;46.60;29.88;;;;;;;;;;5073693;28;20047;-67
2024/03/18 05:05:27;;;;;;;52.03;29.58;;;;;;;;;;5073822;28;20404;-68
2024/03/18 05:08:32;;;;;;;46.50;30.00;;;;;;;;;;5073913;28;20039;-67
2024/03/18 05:11:36;;;;;;;41.72;27.63;;;;;;;;;;5073420;28;20060;-67
2024/03/18 05:14:41;;;;;;;48.17;27.92;;;;;;;;;;5072707;28;20048;-69
2024/03/18 05:17:45;;;;;;;44.75;28.80;;;;;;;;;;5073726;28;20055;-67
2024/03/18 05:20:49;;;;;;;57.53;30.67;;;;;;;;;;5073632;28;20396;-67
2024/03/18 05:23:54;;;;;;;43.47;28.70;;;;;;;;;;5072943;28;20044;-69
2024/03/18 05:26:59;;;;;;;43.67;28.80;;;;;;;;;;5073077;28;20507;-69
2024/03/18 05:30:04;;;;;;;58.40;29.65;;;13.80;99.90;;;;;;5073466;28;20036;-68
2024/03/18 05:33:11;;;;;;;43.35;27.83;;;;;;;;;;5073183;28;20059;-68
2024/03/18 05:36:15;;;;;;;42.47;27.00;;;;;;;;;;5071975;28;20043;-68
2024/03/18 05:39:19;;;;;;;45.00;27.30;;;;;;;;;;5072199;28;20032;-68
2024/03/18 05:42:24;;;;;;;40.90;25.30;;;;;;;;;;5073198;28;20043;-68
2024/03/18 05:45:28;;;;;;;39.92;25.15;;;;;;;;;;5072832;28;20056;-68
2024/03/18 05:48:32;;;;;;;41.10;26.38;;;;;;;;;;5073176;28;20047;-68
2024/03/18 05:51:37;;;;;;;37.40;23.65;;;;;;;;;;5072868;28;20416;-68
2024/03/18 05:54:41;;;;;;;38.83;23.95;;;;;;;;;;5073013;28;20035;-68
2024/03/18 05:57:45;;;;;;;37.92;22.27;;;;;;;;;;5072849;28;20047;-68
2024/03/18 06:00:49;;;;;;;28.38;19.48;;;;;;;;;;5060785;28;20043;-68
2024/03/18 06:03:53;;;;;;;35.08;21.42;;;;;;;;;;5072982;28;20044;-69
2024/03/18 06:07:02;;;;;;;38.65;20.85;;;;;;;;;;5072809;28;20055;-70
2024/03/18 06:10:07;;;;;;;32.65;20.02;;;;;;;;;;5072536;28;20051;-70
2024/03/18 06:13:11;;;;;;;30.10;19.55;;;;;;;;;;5071829;28;20059;-69
2024/03/18 06:16:16;;;;;;;32.97;20.10;;;;;;;;;;5072577;28;20048;-69
2024/03/18 06:19:21;;;;;;;29.13;18.90;;;;;;;;;;5072627;28;20055;-72
2024/03/18 06:22:27;;;;;;;28.50;16.42;;;;;;;;;;5072463;28;20503;-73
2024/03/18 06:28:54;;;;;;;30.55;18.73;;;;;;;;;;5071397;28;20040;-73
2024/03/18 06:31:58;;;;;;;36.08;18.73;;;;;;;;;;5071248;28;20510;-72
2024/03/18 06:35:04;;;;;;;33.15;17.00;;;;;;;;;;5072142;28;20043;-73
2024/03/18 06:38:08;;;;;;;37.65;17.02;;;;;;;;;;5059909;28;20048;-72
2024/03/18 06:41:13;;;;;;;33.20;18.33;;;;;;;;;;5072142;28;20048;-74
2024/03/18 06:44:17;;;;;;;29.00;16.27;;;;;;;;;;5059535;28;20047;-72
2024/03/18 06:47:22;;;;;;;31.90;16.58;;;;;;;;;;5071025;28;20055;-71
2024/03/18 06:50:27;;;;;;;26.08;15.88;;;;;;;;;;5071883;28;20519;-71
2024/03/18 06:53:31;;;;;;;25.92;15.70;;;;;;;;;;5071478;28;20052;-71
2024/03/18 06:56:36;;;;;;;31.55;13.95;;;;;;;;;;5071462;28;20048;-72
2024/03/18 06:59:40;;;;;;;25.45;14.20;;;;;;;;;;5071316;28;20040;-72
2024/03/18 07:02:44;;;;;;;22.45;13.05;;;;;;;;;;5070693;28;20043;-72
2024/03/18 07:05:48;;;;;;;23.20;12.45;;;;;;;;;;5071348;28;20047;-72
2024/03/18 07:08:53;;;;;;;18.38;11.40;;;;;;;;;;5070240;28;20059;-71
2024/03/18 07:11:57;;;;;;;21.52;12.80;;;;;;;;;;5071195;28;20059;-72
2024/03/18 07:15:02;;;;;;;20.95;11.63;;;;;;;;;;5071048;28;20043;-71
2024/03/18 07:18:07;;;;;;;22.98;11.48;;;;;;;;;;5071341;28;20055;-71
2024/03/18 07:21:13;;;;;;;20.35;10.68;;;;;;;;;;5071277;28;20043;-71
2024/03/18 07:24:17;;;;;;;19.05;8.40;;;;;;;;;;5071053;28;20047;-71
2024/03/18 07:27:22;;;;;;;19.40;8.70;;;;;;;;;;5071225;28;20394;-72
2024/03/18 07:30:26;;;;;;;22.40;8.10;;;;;;;;;;5071082;28;20041;-72
2024/03/18 07:33:32;;;;;;;29.35;9.45;;;;;;;;;;5071084;28;20041;-71
2024/03/18 07:36:36;;;;;;;15.70;8.38;;;;;;;;;;5073215;28;20036;-72
2024/03/18 07:39:40;;;;;;;9.18;6.68;;;;;;;;;;5071260;28;20033;-72
2024/03/18 07:42:44;;;;;;;23.75;6.45;;;;;;;;;;5071203;28;20040;-72
2024/03/18 07:45:49;;;;;;;10.43;4.80;;;;;;;;;;5071154;28;20040;-72
2024/03/18 07:48:53;;;;;;;8.07;3.67;;;;;;;;;;5071178;28;20392;-72
2024/03/18 07:51:58;;;;;;;6.70;3.40;;;;;;;;;;5071180;28;20160;-72
2024/03/18 07:55:02;;;;;;;15.85;4.72;;;;;;;;;;5058667;28;20480;-72
2024/03/18 07:58:07;;;;;;;8.90;3.72;;;;;;;;;;5070091;28;20033;-72
2024/03/18 08:01:11;;;;;;;10.75;3.85;;;;;;;;;;5070387;28;20369;-72
2024/03/18 08:04:16;;;;;;;11.88;3.75;;;;;;;;;;5070366;28;20044;-72
2024/03/18 08:07:20;;;;;;;27.58;5.13;;;;;;;;;;5070657;28;20044;-72
2024/03/18 08:10:25;;;;;;;6.88;2.85;;;;;;;;;;5070584;28;20033;-73
2024/03/18 08:13:29;;;;;;;8.38;3.10;;;;;;;;;;5070571;28;20044;-73
2024/03/18 08:16:33;;;;;;;10.07;2.95;;;;;;;;;;5070294;28;20036;-73
2024/03/18 08:19:38;;;;;;;7.82;3.10;;;;;;;;;;5069616;28;20416;-71
2024/03/18 08:22:42;;;;;;;8.27;2.97;;;;;;;;;;5069399;28;20032;-72
2024/03/18 08:25:47;;;;;;;12.80;3.13;;;;;;;;;;5069153;28;20155;-72
2024/03/18 08:28:52;;;;;;;9.63;3.60;;;;;;;;;;5070485;28;20366;-72
2024/03/18 08:31:56;;;;;;;14.38;5.57;;;;;;;;;;5070332;28;20374;-72
2024/03/18 08:35:00;;;;;;;7.32;3.00;;;;;;;;;;5070478;28;20036;-72
2024/03/18 08:38:05;;;;;;;7.72;3.10;;;;;;;;;;5074059;28;20044;-72
2024/03/18 08:41:11;;;;;;;30.60;6.72;;;21.00;93.20;;;;;;5074118;28;20033;-72
2024/03/18 08:44:15;;;;;;;6.70;2.80;;;;;;;;;;5074211;28;20511;-72
2024/03/18 08:47:23;;;;;;;11.00;3.10;;;20.60;93.40;;;;;;5074218;28;20049;-72
2024/03/18 08:50:27;;;;;;;9.27;3.20;;;;;;;;;;5073260;28;20051;-72
2024/03/18 08:53:31;;;;;;;11.30;3.35;;;;;;;;;;5074112;28;20052;-72
2024/03/18 08:56:36;;;;;;;4.65;2.70;;;;;;;;;;5072917;28;20035;-72
2024/03/18 08:59:40;;;;;;;8.70;2.90;;;;;;;;;;5073208;28;20040;-71
2024/03/18 09:02:44;;;;;;;13.02;3.17;;;;;;;;;;5073922;28;20036;-71
2024/03/18 09:05:55;;;;;;;7.43;2.88;;;20.40;92.30;;;;;;5073788;28;20037;-73
2024/03/18 09:08:59;;;;;;;7.38;2.25;;;;;;;;;;5073881;28;20055;-73
2024/03/18 09:12:04;;;;;;;14.48;2.40;;;;;;;;;;5073645;28;20048;-71
2024/03/18 09:15:11;;;;;;;5.93;2.60;;;;;;;;;;5073484;28;20583;-72
2024/03/18 09:18:15;;;;;;;9.60;3.10;;;;;;;;;;5073442;28;20048;-72
2024/03/18 09:21:23;;;;;;;5.03;2.85;;;;;;;;;;5061154;28;20048;-72
2024/03/18 09:24:28;;;;;;;5.70;2.90;;;;;;;;;;5060749;28;20049;-72
2024/03/18 09:27:33;;;;;;;8.18;3.00;;;;;;;;;;5073367;28;20516;-72
2024/03/18 09:30:37;;;;;;;8.75;3.53;;;;;;;;;;5073283;28;20041;-72
2024/03/18 09:33:42;;;;;;;10.10;3.13;;;;;;;;;;5073123;28;20045;-72
2024/03/18 09:36:46;;;;;;;11.48;3.38;;;;;;;;;;5072989;28;20028;-72
2024/03/18 09:39:50;;;;;;;8.57;2.33;;;;;;;;;;5072276;28;20055;-72
2024/03/18 09:42:54;;;;;;;7.75;2.40;;;;;;;;;;5072355;28;20029;-72
2024/03/18 09:46:05;;;;;;;7.05;2.75;;;20.10;92.00;;;;;;5072939;28;20033;-72
2024/03/18 09:49:16;;;;;;;12.07;3.38;;;20.70;92.40;;;;;;5072844;28;20043;-72
2024/03/18 09:52:21;;;;;;;14.82;3.70;;;;;;;;;;5072548;28;20063;-72
2024/03/18 09:55:27;;;;;;;5.95;3.40;;;;;;;;;;5072639;28;20048;-72
2024/03/18 09:58:31;;;;;;;10.85;3.58;;;;;;;;;;5072956;28;20044;-72
2024/03/18 10:01:36;;;;;;;13.77;3.35;;;;;;;;;;5072751;28;20044;-72
2024/03/18 10:04:40;;;;;;;12.05;3.45;;;;;;;;;;5072692;28;20040;-72
2024/03/18 10:07:46;;;;;;;6.00;3.17;;;;;;;;;;5072624;28;20040;-72
2024/03/18 10:10:52;;;;;;;10.25;3.10;;;;;;;;;;5072851;28;20032;-72
2024/03/18 10:13:56;;;;;;;9.93;3.40;;;;;;;;;;5072829;28;20048;-72
2024/03/18 10:17:00;;;;;;;14.70;3.40;;;;;;;;;;5072547;28;20040;-72
2024/03/18 10:20:23;;;;;;;8.77;3.03;;;18.80;95.20;;;;;;5072514;28;20037;-72
2024/03/18 10:23:28;;;;;;;13.75;3.85;;;;;;;;;;5072085;28;20467;-72
2024/03/18 10:26:33;;;;;;;11.07;3.40;;;;;;;;;;5070812;28;20044;-71
2024/03/18 10:29:40;;;;;;;11.93;3.40;;;;;;;;;;5072371;28;20036;-71
2024/03/18 10:32:45;;;;;;;11.43;3.53;;;;;;;;;;5071951;28;20389;-72
2024/03/18 10:35:52;;;;;;;13.82;3.78;;;21.30;97.00;;;;;;5071677;28;20048;-73
2024/03/18 10:39:08;;;;;;;9.75;2.83;;;19.90;96.20;;;;;;5072037;28;20507;-73
2024/03/18 10:42:16;;;;;;;8.82;3.25;;;;;;;;;;5071293;28;20405;-73
2024/03/18 10:45:20;;;;;;;22.25;3.85;;;;;;;;;;5071804;28;20040;-72
2024/03/18 10:48:26;;;;;;;22.27;4.95;;;;;;;;;;5070950;28;20032;-72
2024/03/18 10:51:30;;;;;;;12.75;4.45;;;;;;;;;;5071546;28;20041;-72
2024/03/18 10:54:35;;;;;;;10.15;5.05;;;;;;;;;;5071205;28;20048;-72
2024/03/18 10:57:39;;;;;;;8.55;3.05;;;;;;;;;;5071480;28;20395;-72
2024/03/18 11:00:44;;;;;;;13.55;3.70;;;;;;;;;;5071340;28;20036;-72
2024/03/18 11:03:51;;;;;;;12.23;3.40;;;16.00;95.90;;;;;;5071267;28;20036;-73
2024/03/18 11:06:55;;;;;;;11.82;4.10;;;;;;;;;;5070551;28;20051;-72
2024/03/18 11:10:11;;;;;;;10.25;3.78;;;18.50;96.60;;;;;;5070433;28;20523;-72
2024/03/18 11:13:18;;;;;;;9.63;3.78;;;18.50;96.50;;;;;;5071145;28;20055;-73
2024/03/18 11:16:22;;;;;;;11.70;3.58;;;;;;;;;;5070251;28;20040;-72
2024/03/18 11:19:27;;;;;;;13.52;3.67;;;;;;;;;;5071029;28;20036;-72
2024/03/18 11:22:31;;;;;;;16.48;4.00;;;;;;;;;;5071205;28;20140;-72
2024/03/18 11:25:38;;;;;;;12.77;3.38;;;;;;;;;;5070848;28;20040;-72
2024/03/18 11:28:45;;;;;;;12.60;3.72;;;;;;;;;;5070150;28;20033;-72
2024/03/18 11:31:52;;;;;;;10.38;3.15;;;;;;;;;;5070579;28;20171;-72
2024/03/18 11:34:59;;;;;;;10.18;3.10;;;18.20;95.70;;;;;;5071072;28;20389;-72
2024/03/18 11:38:04;;;;;;;8.90;3.10;;;;;;;;;;5070699;28;20043;-72
2024/03/18 11:41:09;;;;;;;5.65;2.95;;;;;;;;;;5071208;28;20492;-71
2024/03/18 11:44:14;;;;;;;5.72;2.92;;;;;;;;;;5069683;28;20036;-72
2024/03/18 11:47:20;;;;;;;7.85;2.78;;;18.90;95.30;;;;;;5069851;28;20111;-71
2024/03/18 11:50:24;;;;;;;15.77;3.50;;;;;;;;;;5070666;28;20047;-72
2024/03/18 11:53:29;;;;;;;8.43;2.95;;;;;;;;;;5070171;28;20575;-71
2024/03/18 11:56:34;;;;;;;12.82;4.35;;;;;;;;;;5070644;28;20028;-72
2024/03/18 11:59:38;;;;;;;9.10;3.75;;;;;;;;;;5070570;28;20044;-71
2024/03/18 12:02:43;;;;;;;10.65;3.22;;;;;;;;;;5069771;28;20033;-72
2024/03/18 12:05:47;;;;;;;9.32;3.63;;;18.50;95.80;;;;;;5069520;28;20041;-72
2024/03/18 12:08:52;;;;;;;8.48;3.58;;;;;;;;;;5070557;28;20043;-72
2024/03/18 12:11:57;;;;;;;10.05;3.28;;;;;;;;;;5073479;28;20492;-73
2024/03/18 12:15:01;;;;;;;8.50;3.42;;;16.30;95.60;;;;;;5073917;28;20047;-73
2024/03/18 12:18:07;;;;;;;11.73;5.28;;;15.30;95.00;;;;;;5074177;28;20202;-73
2024/03/18 12:21:12;;;;;;;11.23;4.15;;;;;;;;;;5074802;28;20047;-73
2024/03/18 12:31:12;;;;;;;16.58;4.22;;;;;;;;;;5074682;28;20047;-73
2024/03/18 12:34:17;;;;;;;11.15;4.13;;;;;;;;;;5074597;28;20048;-73
2024/03/18 12:37:21;;;;;;;13.40;3.80;;;;;;;;;;5074396;28;20033;-73
2024/03/18 12:40:25;;;;;;;15.60;3.67;;;;;;;;;;5061785;28;20044;-73
2024/03/18 12:43:31;;;;;;;12.02;4.07;;;18.10;97.50;;;;;;5073535;28;20060;-73
2024/03/18 12:46:35;;;;;;;7.45;3.75;;;;;;;;;;5073122;28;20064;-73
2024/03/18 12:49:40;;;;;;;10.32;3.50;;;;;;;;;;5073821;28;20037;-72
2024/03/18 12:52:46;;;;;;;9.40;3.70;;;;;;;;;;5073923;28;20064;-73
2024/03/18 12:55:51;;;;;;;11.00;3.47;;;;;;;;;;5073903;28;20487;-72
2024/03/18 12:58:55;;;;;;;11.65;4.45;;;;;;;;;;5074176;28;20044;-72
2024/03/18 13:01:59;;;;;;;6.75;3.20;;;;;;;;;;5073303;28;20040;-73
2024/03/18 13:05:03;;;;;;;10.55;3.60;;;;;;;;;;5072989;28;20041;-73
2024/03/18 13:08:13;;;;;;;9.93;4.55;;;18.70;97.90;;;;;;5073912;28;20028;-73
2024/03/18 13:11:17;;;;;;;9.65;3.80;;;;;;;;;;5073681;28;20051;-73
2024/03/18 13:14:22;;;;;;;9.07;4.00;;;;;;;;;;5072969;28;20044;-73
2024/03/18 13:17:28;;;;;;;9.55;3.30;;;;;;;;;;5073321;28;20033;-73
2024/03/18 13:20:34;;;;;;;11.73;3.80;;;;;;;;;;5072726;28;20037;-73
2024/03/18 13:23:39;;;;;;;16.17;4.45;;;;;;;;;;5072788;28;20036;-73
2024/03/18 13:26:43;;;;;;;9.05;4.50;;;;;;;;;;5072899;28;20164;-72
2024/03/18 13:29:48;;;;;;;7.07;3.58;;;17.90;97.70;;;;;;5073326;28;20037;-73
2024/03/18 13:32:53;;;;;;;16.90;5.32;;;;;;;;;;5072335;28;20052;-73
2024/03/18 13:35:58;;;;;;;16.63;5.57;;;;;;;;;;5072374;28;20039;-72
2024/03/18 13:39:05;;;;;;;12.98;4.68;;;;;;;;;;5073090;28;20049;-72
2024/03/18 13:42:15;;;;;;;7.53;4.00;;;18.00;98.80;;;;;;5073058;28;20033;-72
2024/03/18 13:45:20;;;;;;;8.43;3.78;;;;;;;;;;5073066;28;20060;-72
2024/03/18 13:48:24;;;;;;;14.82;5.43;;;;;;;;;;5072063;28;20036;-72
2024/03/18 13:51:28;;;;;;;20.13;5.10;;;;;;;;;;5072297;28;20041;-72
2024/03/18 13:54:33;;;;;;;11.85;4.45;;;;;;;;;;5072869;28;20044;-72
2024/03/18 13:57:38;;;;;;;13.52;6.65;;;;;;;;;;5072213;28;20032;-72
2024/03/18 14:00:44;;;;;;;11.27;4.95;;;;;;;;;;5072827;28;20039;-72
2024/03/18 14:03:48;;;;;;;11.30;4.50;;;;;;;;;;5072781;28;20621;-72
2024/03/18 14:06:52;;;;;;;9.77;4.53;;;;;;;;;;5072738;28;20037;-72
2024/03/18 14:09:59;;;;;;;9.20;4.60;;;;;;;;;;5072664;28;20045;-72
2024/03/18 14:13:03;;;;;;;20.02;5.00;;;;;;;;;;5071605;28;20057;-72
2024/03/18 14:16:12;;;;;;;21.08;5.05;;;;;;;;;;5070439;28;20033;-69
2024/03/18 14:19:18;;;;;;;11.25;4.90;;;17.40;99.30;;;;;;5071660;28;20041;-70
2024/03/18 14:22:23;;;;;;;10.55;5.15;;;;;;;;;;5071446;28;20044;-74
2024/03/18 14:25:29;;;;;;;7.43;3.95;;;;;;;;;;5070830;28;20131;-71
2024/03/18 14:28:34;;;;;;;10.48;4.10;;;;;;;;;;5071055;28;20036;-69
2024/03/18 14:31:38;;;;;;;13.55;5.18;;;;;;;;;;5072135;28;20052;-72
2024/03/18 14:34:42;;;;;;;26.02;7.63;;;;;;;;;;5071359;28;20044;-71
2024/03/18 14:37:47;;;;;;;8.00;4.18;;;;;;;;;;5072037;28;20036;-71
2024/03/18 14:40:51;;;;;;;12.10;4.22;;;;;;;;;;5071447;28;20060;-70
2024/03/18 14:43:55;;;;;;;9.45;4.05;;;;;;;;;;5071748;28;20044;-71
2024/03/18 14:47:03;;;;;;;13.32;4.88;;;;;;;;;;5071587;28;20040;-69
2024/03/18 14:50:07;;;;;;;9.80;3.55;;;;;;;;;;5071027;28;20044;-71
2024/03/18 14:53:12;;;;;;;23.05;5.82;;;;;;;;;;5071862;28;20053;-71
2024/03/18 14:56:17;;;;;;;14.00;5.32;;;;;;;;;;5071590;28;20135;-68
2024/03/18 14:59:24;;;;;;;10.48;4.07;;;;;;;;;;5071598;28;20044;-68
2024/03/18 15:02:28;;;;;;;15.93;4.32;;;;;;;;;;5071871;28;20043;-69
2024/03/18 15:05:32;;;;;;;20.80;5.03;;;;;;;;;;5071575;28;20044;-70
2024/03/18 15:08:37;;;;;;;37.67;5.82;;;;;;;;;;5071625;28;20408;-69
2024/03/18 15:11:41;;;;;;;14.25;4.20;;;;;;;;;;5070820;28;20040;-71
2024/03/18 15:14:45;;;;;;;18.17;5.30;;;;;;;;;;5071410;28;20104;-70
2024/03/18 15:17:54;;;;;;;18.58;5.13;;;17.30;99.90;;;;;;5071156;28;20400;-69
2024/03/18 15:20:58;;;;;;;13.00;4.80;;;;;;;;;;5071502;28;20392;-70
2024/03/18 15:24:12;;;;;;;11.93;4.22;;;;;;;;;;5071378;28;20056;-70
2024/03/18 15:30:42;;;;;;;12.88;4.95;;;;;;;;;;5071236;28;20047;-71
2024/03/18 15:33:46;;;;;;;13.93;4.35;;;;;;;;;;5070849;28;20045;-69
2024/03/18 15:36:52;;;;;;;24.15;4.63;;;;;;;;;;5070959;28;20053;-69
2024/03/18 15:39:59;;;;;;;18.50;4.55;;;;;;;;;;5071116;28;20065;-69
2024/03/18 15:43:05;;;;;;;11.85;3.70;;;;;;;;;;5070380;28;20063;-76
2024/03/18 15:46:09;;;;;;;12.27;4.30;;;;;;;;;;5069966;28;20052;-72
2024/03/18 15:49:13;;;;;;;17.90;4.97;;;;;;;;;;5070710;28;20044;-72
2024/03/18 15:52:18;;;;;;;11.98;4.63;;;;;;;;;;5070462;28;20049;-73
2024/03/18 15:55:22;;;;;;;12.02;4.97;;;;;;;;;;5069196;28;20104;-71
2024/03/18 15:58:27;;;;;;;12.88;4.75;;;;;;;;;;5070777;28;20052;-72
2024/03/18 16:01:32;;;;;;;12.35;5.32;;;;;;;;;;5070475;28;20059;-70
2024/03/18 16:04:36;;;;;;;26.08;9.30;;;;;;;;;;5069779;28;20276;-70
2024/03/18 16:07:41;;;;;;;16.48;4.53;;;;;;;;;;5070833;28;20040;-71
2024/03/18 16:10:45;;;;;;;16.92;4.70;;;;;;;;;;5069798;28;20040;-71
2024/03/18 16:13:50;;;;;;;23.90;7.18;;;;;;;;;;5070330;28;20048;-71
2024/03/18 16:16:54;;;;;;;17.75;5.70;;;;;;;;;;5069583;28;20045;-71
2024/03/18 16:19:58;;;;;;;10.93;4.53;;;;;;;;;;5070746;28;20396;-72
2024/03/18 16:23:02;;;;;;;13.32;4.20;;;;;;;;;;5069803;28;20045;-71
2024/03/18 16:26:07;;;;;;;17.90;4.63;;;;;;;;;;5070224;28;20053;-69
2024/03/18 16:29:12;;;;;;;20.05;5.03;;;;;;;;;;5070002;28;20139;-72
2024/03/18 16:32:17;;;;;;;26.98;9.48;;;;;;;;;;5070581;28;20045;-72
2024/03/18 16:35:22;;;;;;;18.20;4.50;;;;;;;;;;5070681;28;20044;-71
2024/03/18 16:38:27;;;;;;;20.85;5.20;;;;;;;;;;5069806;28;20049;-72
2024/03/18 16:41:34;;;;;;;18.38;5.05;;;;;;;;;;5069728;28;20057;-70
2024/03/18 16:44:38;;;;;;;18.30;5.10;;;;;;;;;;5070124;28;20041;-69
2024/03/18 16:47:43;;;;;;;14.70;5.63;;;;;;;;;;5069314;28;20037;-72
2024/03/18 16:50:47;;;;;;;37.10;5.72;;;;;;;;;;5070407;28;20047;-71
2024/03/18 16:53:51;;;;;;;28.75;5.65;;;;;;;;;;5069809;28;20059;-71
2024/03/18 16:56:56;;;;;;;20.05;6.32;;;;;;;;;;5070314;28;20036;-72
2024/03/18 17:00:08;;;;;;;18.98;4.88;;;;;;;;;;5061933;28;20041;-74
2024/03/18 17:03:15;;;;;;;15.32;4.75;;;;;;;;;;5073859;28;20112;-71
2024/03/18 17:06:19;;;;;;;13.63;5.05;;;;;;;;;;5072859;28;20369;-69
2024/03/18 17:09:23;;;;;;;15.25;5.10;;;;;;;;;;5072820;28;20040;-70
2024/03/18 17:12:28;;;;;;;17.52;5.25;;;;;;;;;;5072106;28;20048;-71
2024/03/18 17:15:33;;;;;;;19.05;6.10;;;;;;;;;;5072642;28;20354;-71
2024/03/18 17:18:37;;;;;;;19.15;6.00;;;;;;;;;;5073216;28;20043;-70
2024/03/18 17:21:41;;;;;;;13.55;5.25;;;;;;;;;;5073487;28;20044;-70
2024/03/18 17:24:47;;;;;;;25.75;5.82;;;;;;;;;;5072725;28;20048;-70
2024/03/18 17:27:51;;;;;;;15.32;5.63;;;;;;;;;;5073364;28;20052;-70
2024/03/18 17:30:57;;;;;;;16.35;5.57;;;;;;;;;;5073719;28;20501;-70
2024/03/18 17:34:01;;;;;;;16.58;6.85;;;;;;;;;;5073475;28;20051;-70
2024/03/18 17:37:06;;;;;;;20.55;6.97;;;;;;;;;;5073445;28;20043;-70
2024/03/18 17:40:11;;;;;;;14.68;6.03;;;;;;;;;;5073054;28;20036;-70
2024/03/18 17:43:15;;;;;;;14.70;7.00;;;;;;;;;;5073191;28;20044;-70
2024/03/18 17:46:20;;;;;;;19.63;6.13;;;;;;;;;;5073173;28;20037;-70
2024/03/18 17:49:24;;;;;;;16.13;6.20;;;;;;;;;;5072931;28;20457;-70
2024/03/18 17:52:30;;;;;;;25.40;7.10;;;;;;;;;;5073115;28;20266;-70
2024/03/18 17:55:37;;;;;;;21.00;5.55;;;;;;;;;;5072849;28;20036;-70
2024/03/18 17:58:42;;;;;;;20.98;7.13;;;;;;;;;;5072946;28;20048;-70